sensor_id;sensor_type;location;lat;lon;timestamp;P1;durP1;ratioP1;P2;durP2;ratioP2
47912;SDS011;33676;51.006;17.180;2023-08-31T00:02:13;6.20;;;5.60;;
47912;SDS011;33676;51.006;17.180;2023-08-31T00:04:40;6.50;;;5.60;;
47912;SDS011;33676;51.006;17.180;2023-08-31T00:07:07;6.30;;;5.40;;
47912;SDS011;33676;51.006;17.180;2023-08-31T00:09:34;6.00;;;5.50;;
47912;SDS011;33676;51.006;17.180;2023-08-31T00:12:02;6.30;;;5.90;;
47912;SDS011;33676;51.006;17.180;2023-08-31T00:14:30;6.20;;;5.60;;
47912;SDS011;33676;51.006;17.180;2023-08-31T00:16:57;6.00;;;4.60;;
47912;SDS011;33676;51.006;17.180;2023-08-31T00:19:24;6.10;;;5.60;;
47912;SDS011;33676;51.006;17.180;2023-08-31T00:21:51;5.70;;;5.20;;
47912;SDS011;33676;51.006;17.180;2023-08-31T00:24:18;5.90;;;5.10;;
47912;SDS011;33676;51.006;17.180;2023-08-31T00:26:48;6.40;;;5.50;;
47912;SDS011;33676;51.006;17.180;2023-08-31T00:29:18;5.70;;;4.70;;
47912;SDS011;33676;51.006;17.180;2023-08-31T00:31:45;5.50;;;5.00;;
47912;SDS011;33676;51.006;17.180;2023-08-31T00:34:15;5.90;;;5.30;;
47912;SDS011;33676;51.006;17.180;2023-08-31T00:36:44;9.40;;;6.40;;
47912;SDS011;33676;51.006;17.180;2023-08-31T00:39:11;8.40;;;5.90;;
47912;SDS011;33676;51.006;17.180;2023-08-31T00:41:38;5.60;;;5.10;;
47912;SDS011;33676;51.006;17.180;2023-08-31T00:44:12;5.40;;;4.90;;
47912;SDS011;33676;51.006;17.180;2023-08-31T00:46:40;5.60;;;4.70;;
47912;SDS011;33676;51.006;17.180;2023-08-31T00:49:07;5.20;;;4.70;;
47912;SDS011;33676;51.006;17.180;2023-08-31T00:51:35;5.60;;;5.20;;
47912;SDS011;33676;51.006;17.180;2023-08-31T00:54:03;5.00;;;4.70;;
47912;SDS011;33676;51.006;17.180;2023-08-31T00:56:32;4.90;;;4.60;;
47912;SDS011;33676;51.006;17.180;2023-08-31T00:59:00;4.60;;;4.20;;
47912;SDS011;33676;51.006;17.180;2023-08-31T01:01:41;5.00;;;4.30;;
47912;SDS011;33676;51.006;17.180;2023-08-31T01:04:21;4.90;;;4.60;;
47912;SDS011;33676;51.006;17.180;2023-08-31T01:15:34;5.20;;;4.80;;
47912;SDS011;33676;51.006;17.180;2023-08-31T01:18:02;5.50;;;4.90;;
47912;SDS011;33676;51.006;17.180;2023-08-31T01:20:40;4.60;;;4.20;;
47912;SDS011;33676;51.006;17.180;2023-08-31T01:23:16;5.20;;;4.80;;
47912;SDS011;33676;51.006;17.180;2023-08-31T01:25:45;5.20;;;4.70;;
47912;SDS011;33676;51.006;17.180;2023-08-31T01:28:15;5.40;;;4.50;;
47912;SDS011;33676;51.006;17.180;2023-08-31T01:30:42;4.50;;;4.20;;
47912;SDS011;33676;51.006;17.180;2023-08-31T01:33:09;7.20;;;5.10;;
47912;SDS011;33676;51.006;17.180;2023-08-31T01:35:40;5.10;;;4.60;;
47912;SDS011;33676;51.006;17.180;2023-08-31T01:38:12;7.00;;;5.10;;
47912;SDS011;33676;51.006;17.180;2023-08-31T01:40:59;5.50;;;4.90;;
47912;SDS011;33676;51.006;17.180;2023-08-31T01:43:34;6.20;;;5.70;;
47912;SDS011;33676;51.006;17.180;2023-08-31T01:46:02;6.90;;;4.70;;
47912;SDS011;33676;51.006;17.180;2023-08-31T01:48:29;7.00;;;6.30;;
47912;SDS011;33676;51.006;17.180;2023-08-31T01:50:57;6.70;;;6.00;;
47912;SDS011;33676;51.006;17.180;2023-08-31T01:53:28;6.50;;;5.90;;
47912;SDS011;33676;51.006;17.180;2023-08-31T01:55:54;5.70;;;5.30;;
47912;SDS011;33676;51.006;17.180;2023-08-31T01:58:22;5.80;;;4.90;;
47912;SDS011;33676;51.006;17.180;2023-08-31T02:00:49;5.00;;;4.70;;
47912;SDS011;33676;51.006;17.180;2023-08-31T02:03:16;6.40;;;5.50;;
47912;SDS011;33676;51.006;17.180;2023-08-31T02:05:44;5.50;;;5.00;;
47912;SDS011;33676;51.006;17.180;2023-08-31T02:08:11;5.50;;;5.10;;
47912;SDS011;33676;51.006;17.180;2023-08-31T02:10:38;6.60;;;5.90;;
47912;SDS011;33676;51.006;17.180;2023-08-31T02:13:05;6.50;;;5.50;;
47912;SDS011;33676;51.006;17.180;2023-08-31T02:15:32;5.00;;;4.60;;
47912;SDS011;33676;51.006;17.180;2023-08-31T02:17:59;5.60;;;5.10;;
47912;SDS011;33676;51.006;17.180;2023-08-31T02:20:27;5.90;;;5.30;;
47912;SDS011;33676;51.006;17.180;2023-08-31T02:22:54;5.20;;;4.70;;
47912;SDS011;33676;51.006;17.180;2023-08-31T02:25:22;6.40;;;5.40;;
47912;SDS011;33676;51.006;17.180;2023-08-31T02:27:49;6.00;;;5.40;;
47912;SDS011;33676;51.006;17.180;2023-08-31T02:30:16;5.50;;;5.10;;
47912;SDS011;33676;51.006;17.180;2023-08-31T02:32:43;6.80;;;6.10;;
47912;SDS011;33676;51.006;17.180;2023-08-31T02:35:10;5.70;;;5.10;;
47912;SDS011;33676;51.006;17.180;2023-08-31T02:37:39;5.50;;;5.00;;
47912;SDS011;33676;51.006;17.180;2023-08-31T02:40:09;5.70;;;5.20;;
47912;SDS011;33676;51.006;17.180;2023-08-31T02:42:37;5.90;;;5.10;;
47912;SDS011;33676;51.006;17.180;2023-08-31T02:45:04;6.10;;;5.30;;
47912;SDS011;33676;51.006;17.180;2023-08-31T02:47:32;4.60;;;4.20;;
47912;SDS011;33676;51.006;17.180;2023-08-31T02:49:59;5.60;;;5.10;;
47912;SDS011;33676;51.006;17.180;2023-08-31T02:52:26;4.90;;;4.50;;
47912;SDS011;33676;51.006;17.180;2023-08-31T02:54:53;6.10;;;5.30;;
47912;SDS011;33676;51.006;17.180;2023-08-31T02:57:20;5.10;;;4.40;;
47912;SDS011;33676;51.006;17.180;2023-08-31T02:59:51;6.40;;;5.70;;
47912;SDS011;33676;51.006;17.180;2023-08-31T03:02:18;5.90;;;5.40;;
47912;SDS011;33676;51.006;17.180;2023-08-31T03:04:46;6.40;;;5.40;;
47912;SDS011;33676;51.006;17.180;2023-08-31T03:07:13;6.20;;;5.60;;
47912;SDS011;33676;51.006;17.180;2023-08-31T03:09:41;5.80;;;5.30;;
47912;SDS011;33676;51.006;17.180;2023-08-31T03:12:09;6.10;;;5.50;;
47912;SDS011;33676;51.006;17.180;2023-08-31T03:14:36;5.80;;;5.30;;
47912;SDS011;33676;51.006;17.180;2023-08-31T03:17:03;5.60;;;5.20;;
47912;SDS011;33676;51.006;17.180;2023-08-31T03:19:30;6.30;;;5.70;;
47912;SDS011;33676;51.006;17.180;2023-08-31T03:22:17;5.90;;;5.30;;
47912;SDS011;33676;51.006;17.180;2023-08-31T03:25:27;5.10;;;4.60;;
47912;SDS011;33676;51.006;17.180;2023-08-31T03:27:56;7.60;;;6.90;;
47912;SDS011;33676;51.006;17.180;2023-08-31T03:30:23;5.90;;;5.50;;
47912;SDS011;33676;51.006;17.180;2023-08-31T03:32:50;8.10;;;6.30;;
47912;SDS011;33676;51.006;17.180;2023-08-31T03:35:17;7.50;;;6.90;;
47912;SDS011;33676;51.006;17.180;2023-08-31T03:37:47;8.60;;;7.70;;
47912;SDS011;33676;51.006;17.180;2023-08-31T03:40:14;9.90;;;6.60;;
47912;SDS011;33676;51.006;17.180;2023-08-31T03:42:41;10.00;;;6.10;;
47912;SDS011;33676;51.006;17.180;2023-08-31T03:45:09;6.60;;;6.10;;
47912;SDS011;33676;51.006;17.180;2023-08-31T03:47:36;7.10;;;6.50;;
47912;SDS011;33676;51.006;17.180;2023-08-31T03:50:04;6.80;;;6.20;;
47912;SDS011;33676;51.006;17.180;2023-08-31T03:52:32;7.00;;;6.30;;
47912;SDS011;33676;51.006;17.180;2023-08-31T03:54:59;6.80;;;6.30;;
47912;SDS011;33676;51.006;17.180;2023-08-31T03:57:26;6.70;;;6.10;;
47912;SDS011;33676;51.006;17.180;2023-08-31T03:59:53;8.60;;;7.00;;
47912;SDS011;33676;51.006;17.180;2023-08-31T04:02:20;8.60;;;7.10;;
47912;SDS011;33676;51.006;17.180;2023-08-31T04:04:47;6.40;;;5.90;;
47912;SDS011;33676;51.006;17.180;2023-08-31T04:07:14;7.30;;;6.70;;
47912;SDS011;33676;51.006;17.180;2023-08-31T04:09:41;8.90;;;6.80;;
47912;SDS011;33676;51.006;17.180;2023-08-31T04:12:08;7.00;;;6.20;;
47912;SDS011;33676;51.006;17.180;2023-08-31T04:14:35;7.80;;;7.00;;
47912;SDS011;33676;51.006;17.180;2023-08-31T04:17:02;6.30;;;5.80;;
47912;SDS011;33676;51.006;17.180;2023-08-31T04:19:32;6.80;;;6.30;;
47912;SDS011;33676;51.006;17.180;2023-08-31T04:21:59;6.30;;;5.80;;
47912;SDS011;33676;51.006;17.180;2023-08-31T04:24:26;7.20;;;6.50;;
47912;SDS011;33676;51.006;17.180;2023-08-31T04:26:53;7.00;;;6.30;;
47912;SDS011;33676;51.006;17.180;2023-08-31T04:29:22;7.50;;;6.80;;
47912;SDS011;33676;51.006;17.180;2023-08-31T04:31:50;7.40;;;6.70;;
47912;SDS011;33676;51.006;17.180;2023-08-31T04:34:17;8.00;;;7.20;;
47912;SDS011;33676;51.006;17.180;2023-08-31T04:36:45;8.00;;;7.30;;
47912;SDS011;33676;51.006;17.180;2023-08-31T04:39:12;6.90;;;6.20;;
47912;SDS011;33676;51.006;17.180;2023-08-31T04:41:39;8.10;;;7.40;;
47912;SDS011;33676;51.006;17.180;2023-08-31T04:44:06;7.30;;;6.70;;
47912;SDS011;33676;51.006;17.180;2023-08-31T04:46:34;7.60;;;7.00;;
47912;SDS011;33676;51.006;17.180;2023-08-31T04:49:01;7.50;;;6.80;;
47912;SDS011;33676;51.006;17.180;2023-08-31T04:51:33;8.10;;;7.50;;
47912;SDS011;33676;51.006;17.180;2023-08-31T04:54:02;7.60;;;6.90;;
47912;SDS011;33676;51.006;17.180;2023-08-31T04:56:31;7.90;;;7.20;;
47912;SDS011;33676;51.006;17.180;2023-08-31T04:59:00;8.30;;;7.60;;
47912;SDS011;33676;51.006;17.180;2023-08-31T05:01:28;9.10;;;8.00;;
47912;SDS011;33676;51.006;17.180;2023-08-31T05:03:55;9.20;;;8.30;;
47912;SDS011;33676;51.006;17.180;2023-08-31T05:06:22;7.80;;;7.20;;
47912;SDS011;33676;51.006;17.180;2023-08-31T05:08:49;9.20;;;8.40;;
47912;SDS011;33676;51.006;17.180;2023-08-31T05:11:16;9.00;;;8.10;;
47912;SDS011;33676;51.006;17.180;2023-08-31T05:13:43;10.10;;;9.10;;
47912;SDS011;33676;51.006;17.180;2023-08-31T05:16:10;9.60;;;8.80;;
47912;SDS011;33676;51.006;17.180;2023-08-31T05:18:38;10.10;;;9.20;;
47912;SDS011;33676;51.006;17.180;2023-08-31T05:21:07;9.40;;;8.60;;
47912;SDS011;33676;51.006;17.180;2023-08-31T05:23:34;9.60;;;8.70;;
47912;SDS011;33676;51.006;17.180;2023-08-31T05:26:01;9.50;;;8.70;;
47912;SDS011;33676;51.006;17.180;2023-08-31T05:28:29;9.10;;;8.30;;
47912;SDS011;33676;51.006;17.180;2023-08-31T05:30:56;9.00;;;8.30;;
47912;SDS011;33676;51.006;17.180;2023-08-31T05:33:24;9.80;;;8.80;;
47912;SDS011;33676;51.006;17.180;2023-08-31T05:35:56;8.60;;;7.70;;
47912;SDS011;33676;51.006;17.180;2023-08-31T05:38:23;9.80;;;8.80;;
47912;SDS011;33676;51.006;17.180;2023-08-31T05:40:50;9.10;;;8.40;;
47912;SDS011;33676;51.006;17.180;2023-08-31T05:43:17;15.40;;;9.10;;
47912;SDS011;33676;51.006;17.180;2023-08-31T05:45:44;9.30;;;8.60;;
47912;SDS011;33676;51.006;17.180;2023-08-31T05:48:11;8.60;;;7.90;;
47912;SDS011;33676;51.006;17.180;2023-08-31T05:50:38;9.30;;;8.70;;
47912;SDS011;33676;51.006;17.180;2023-08-31T05:53:05;15.30;;;9.40;;
47912;SDS011;33676;51.006;17.180;2023-08-31T05:55:34;9.30;;;8.40;;
47912;SDS011;33676;51.006;17.180;2023-08-31T05:58:01;8.00;;;7.30;;
47912;SDS011;33676;51.006;17.180;2023-08-31T06:00:30;8.00;;;7.40;;
47912;SDS011;33676;51.006;17.180;2023-08-31T06:02:57;7.80;;;7.10;;
47912;SDS011;33676;51.006;17.180;2023-08-31T06:05:24;8.00;;;7.40;;
47912;SDS011;33676;51.006;17.180;2023-08-31T06:07:51;8.70;;;7.90;;
47912;SDS011;33676;51.006;17.180;2023-08-31T06:10:19;8.60;;;7.80;;
47912;SDS011;33676;51.006;17.180;2023-08-31T06:12:46;8.80;;;7.90;;
47912;SDS011;33676;51.006;17.180;2023-08-31T06:15:13;8.50;;;7.60;;
47912;SDS011;33676;51.006;17.180;2023-08-31T06:17:41;8.40;;;7.80;;
47912;SDS011;33676;51.006;17.180;2023-08-31T06:20:09;8.60;;;7.90;;
47912;SDS011;33676;51.006;17.180;2023-08-31T06:22:37;9.60;;;8.70;;
47912;SDS011;33676;51.006;17.180;2023-08-31T06:25:05;8.30;;;7.60;;
47912;SDS011;33676;51.006;17.180;2023-08-31T06:27:32;7.30;;;6.50;;
47912;SDS011;33676;51.006;17.180;2023-08-31T06:29:59;7.70;;;7.10;;
47912;SDS011;33676;51.006;17.180;2023-08-31T06:32:26;7.80;;;7.10;;
47912;SDS011;33676;51.006;17.180;2023-08-31T06:34:54;8.60;;;7.90;;
47912;SDS011;33676;51.006;17.180;2023-08-31T06:37:21;8.30;;;7.60;;
47912;SDS011;33676;51.006;17.180;2023-08-31T06:39:48;7.10;;;6.60;;
47912;SDS011;33676;51.006;17.180;2023-08-31T06:42:15;8.70;;;7.90;;
47912;SDS011;33676;51.006;17.180;2023-08-31T06:44:42;8.90;;;8.30;;
47912;SDS011;33676;51.006;17.180;2023-08-31T06:47:09;8.30;;;7.60;;
47912;SDS011;33676;51.006;17.180;2023-08-31T06:49:36;7.30;;;6.80;;
47912;SDS011;33676;51.006;17.180;2023-08-31T06:52:04;7.90;;;7.30;;
47912;SDS011;33676;51.006;17.180;2023-08-31T06:54:49;8.80;;;8.00;;
47912;SDS011;33676;51.006;17.180;2023-08-31T06:57:16;8.60;;;7.90;;
47912;SDS011;33676;51.006;17.180;2023-08-31T06:59:43;7.50;;;6.90;;
47912;SDS011;33676;51.006;17.180;2023-08-31T07:02:11;9.10;;;8.30;;
47912;SDS011;33676;51.006;17.180;2023-08-31T07:04:38;7.50;;;7.00;;
47912;SDS011;33676;51.006;17.180;2023-08-31T07:07:06;7.90;;;7.20;;
47912;SDS011;33676;51.006;17.180;2023-08-31T07:09:35;7.30;;;6.60;;
47912;SDS011;33676;51.006;17.180;2023-08-31T07:12:03;7.20;;;6.60;;
47912;SDS011;33676;51.006;17.180;2023-08-31T07:14:30;8.80;;;7.20;;
47912;SDS011;33676;51.006;17.180;2023-08-31T07:16:57;7.90;;;7.30;;
47912;SDS011;33676;51.006;17.180;2023-08-31T07:19:24;7.50;;;6.80;;
47912;SDS011;33676;51.006;17.180;2023-08-31T07:21:51;7.30;;;6.80;;
47912;SDS011;33676;51.006;17.180;2023-08-31T07:24:18;7.50;;;6.90;;
47912;SDS011;33676;51.006;17.180;2023-08-31T07:26:45;6.60;;;6.00;;
47912;SDS011;33676;51.006;17.180;2023-08-31T07:29:12;6.70;;;6.20;;
47912;SDS011;33676;51.006;17.180;2023-08-31T07:31:40;7.00;;;6.40;;
47912;SDS011;33676;51.006;17.180;2023-08-31T07:34:07;7.30;;;6.70;;
47912;SDS011;33676;51.006;17.180;2023-08-31T07:36:37;8.10;;;7.40;;
47912;SDS011;33676;51.006;17.180;2023-08-31T07:39:05;7.60;;;7.00;;
47912;SDS011;33676;51.006;17.180;2023-08-31T07:41:35;7.10;;;6.50;;
47912;SDS011;33676;51.006;17.180;2023-08-31T07:44:08;8.90;;;8.00;;
47912;SDS011;33676;51.006;17.180;2023-08-31T07:46:35;8.30;;;7.60;;
47912;SDS011;33676;51.006;17.180;2023-08-31T07:49:02;7.40;;;6.80;;
47912;SDS011;33676;51.006;17.180;2023-08-31T07:51:34;7.30;;;6.70;;
47912;SDS011;33676;51.006;17.180;2023-08-31T07:54:01;8.80;;;8.00;;
47912;SDS011;33676;51.006;17.180;2023-08-31T07:56:31;8.80;;;8.00;;
47912;SDS011;33676;51.006;17.180;2023-08-31T07:58:58;8.80;;;8.00;;
47912;SDS011;33676;51.006;17.180;2023-08-31T08:01:25;8.00;;;7.30;;
47912;SDS011;33676;51.006;17.180;2023-08-31T08:03:52;7.40;;;6.80;;
47912;SDS011;33676;51.006;17.180;2023-08-31T08:06:19;7.60;;;7.00;;
47912;SDS011;33676;51.006;17.180;2023-08-31T08:08:46;7.70;;;7.00;;
47912;SDS011;33676;51.006;17.180;2023-08-31T08:11:13;7.70;;;7.00;;
47912;SDS011;33676;51.006;17.180;2023-08-31T08:13:40;8.00;;;7.50;;
47912;SDS011;33676;51.006;17.180;2023-08-31T08:16:08;6.70;;;6.20;;
47912;SDS011;33676;51.006;17.180;2023-08-31T08:18:35;6.30;;;5.80;;
47912;SDS011;33676;51.006;17.180;2023-08-31T08:21:03;6.00;;;5.40;;
47912;SDS011;33676;51.006;17.180;2023-08-31T08:23:30;5.50;;;5.00;;
47912;SDS011;33676;51.006;17.180;2023-08-31T08:25:57;5.90;;;5.50;;
47912;SDS011;33676;51.006;17.180;2023-08-31T08:28:27;5.40;;;5.10;;
47912;SDS011;33676;51.006;17.180;2023-08-31T08:30:55;5.50;;;5.10;;
47912;SDS011;33676;51.006;17.180;2023-08-31T08:33:22;5.50;;;5.20;;
47912;SDS011;33676;51.006;17.180;2023-08-31T08:35:49;5.60;;;5.20;;
47912;SDS011;33676;51.006;17.180;2023-08-31T08:38:16;5.60;;;5.30;;
47912;SDS011;33676;51.006;17.180;2023-08-31T08:40:44;6.20;;;5.80;;
47912;SDS011;33676;51.006;17.180;2023-08-31T08:43:11;6.00;;;5.60;;
47912;SDS011;33676;51.006;17.180;2023-08-31T08:45:39;5.40;;;5.00;;
47912;SDS011;33676;51.006;17.180;2023-08-31T08:48:09;5.70;;;5.30;;
47912;SDS011;33676;51.006;17.180;2023-08-31T08:50:37;6.50;;;6.00;;
47912;SDS011;33676;51.006;17.180;2023-08-31T08:53:05;6.10;;;5.70;;
47912;SDS011;33676;51.006;17.180;2023-08-31T08:55:33;5.30;;;5.00;;
47912;SDS011;33676;51.006;17.180;2023-08-31T08:58:00;6.00;;;5.60;;
47912;SDS011;33676;51.006;17.180;2023-08-31T09:00:27;6.40;;;6.00;;
47912;SDS011;33676;51.006;17.180;2023-08-31T09:02:58;6.10;;;5.60;;
47912;SDS011;33676;51.006;17.180;2023-08-31T09:05:32;6.00;;;5.60;;
47912;SDS011;33676;51.006;17.180;2023-08-31T09:08:08;5.70;;;5.40;;
47912;SDS011;33676;51.006;17.180;2023-08-31T09:10:57;5.90;;;5.40;;
47912;SDS011;33676;51.006;17.180;2023-08-31T09:13:29;5.20;;;4.80;;
47912;SDS011;33676;51.006;17.180;2023-08-31T09:15:56;4.40;;;4.20;;
47912;SDS011;33676;51.006;17.180;2023-08-31T09:18:24;6.20;;;5.80;;
47912;SDS011;33676;51.006;17.180;2023-08-31T09:20:53;5.10;;;4.80;;
47912;SDS011;33676;51.006;17.180;2023-08-31T09:23:24;6.10;;;5.70;;
47912;SDS011;33676;51.006;17.180;2023-08-31T09:25:54;5.10;;;4.70;;
47912;SDS011;33676;51.006;17.180;2023-08-31T09:28:24;5.70;;;5.30;;
47912;SDS011;33676;51.006;17.180;2023-08-31T09:31:08;6.60;;;5.20;;
47912;SDS011;33676;51.006;17.180;2023-08-31T09:33:35;3.90;;;3.60;;
47912;SDS011;33676;51.006;17.180;2023-08-31T09:36:06;4.80;;;3.50;;
47912;SDS011;33676;51.006;17.180;2023-08-31T09:38:43;3.10;;;2.90;;
47912;SDS011;33676;51.006;17.180;2023-08-31T09:41:13;3.90;;;3.50;;
47912;SDS011;33676;51.006;17.180;2023-08-31T09:43:42;3.90;;;2.80;;
47912;SDS011;33676;51.006;17.180;2023-08-31T09:46:10;3.50;;;2.40;;
47912;SDS011;33676;51.006;17.180;2023-08-31T09:48:38;3.30;;;3.10;;
47912;SDS011;33676;51.006;17.180;2023-08-31T09:51:12;2.20;;;2.10;;
47912;SDS011;33676;51.006;17.180;2023-08-31T09:53:45;2.40;;;2.20;;
47912;SDS011;33676;51.006;17.180;2023-08-31T09:56:18;2.10;;;2.00;;
47912;SDS011;33676;51.006;17.180;2023-08-31T09:58:48;2.30;;;2.10;;
47912;SDS011;33676;51.006;17.180;2023-08-31T10:01:16;2.30;;;2.20;;
47912;SDS011;33676;51.006;17.180;2023-08-31T10:03:53;1.80;;;1.80;;
47912;SDS011;33676;51.006;17.180;2023-08-31T10:06:21;3.30;;;2.30;;
47912;SDS011;33676;51.006;17.180;2023-08-31T10:08:49;2.50;;;2.30;;
47912;SDS011;33676;51.006;17.180;2023-08-31T10:11:16;3.10;;;2.90;;
47912;SDS011;33676;51.006;17.180;2023-08-31T10:13:44;2.20;;;2.10;;
47912;SDS011;33676;51.006;17.180;2023-08-31T10:16:20;4.20;;;2.90;;
47912;SDS011;33676;51.006;17.180;2023-08-31T10:18:48;2.70;;;2.50;;
47912;SDS011;33676;51.006;17.180;2023-08-31T10:21:18;2.20;;;2.10;;
47912;SDS011;33676;51.006;17.180;2023-08-31T10:23:47;2.10;;;2.00;;
47912;SDS011;33676;51.006;17.180;2023-08-31T10:26:26;5.70;;;2.30;;
47912;SDS011;33676;51.006;17.180;2023-08-31T10:28:55;1.90;;;1.70;;
47912;SDS011;33676;51.006;17.180;2023-08-31T10:31:30;2.20;;;2.00;;
47912;SDS011;33676;51.006;17.180;2023-08-31T10:34:01;3.60;;;3.30;;
47912;SDS011;33676;51.006;17.180;2023-08-31T10:38:47;2.60;;;2.40;;
47912;SDS011;33676;51.006;17.180;2023-08-31T10:41:35;2.60;;;2.30;;
47912;SDS011;33676;51.006;17.180;2023-08-31T10:44:33;2.50;;;2.20;;
47912;SDS011;33676;51.006;17.180;2023-08-31T10:47:03;3.20;;;2.70;;
47912;SDS011;33676;51.006;17.180;2023-08-31T10:49:31;5.40;;;3.50;;
47912;SDS011;33676;51.006;17.180;2023-08-31T10:52:17;3.10;;;2.80;;
47912;SDS011;33676;51.006;17.180;2023-08-31T10:55:05;2.50;;;2.40;;
47912;SDS011;33676;51.006;17.180;2023-08-31T10:57:32;3.50;;;3.20;;
47912;SDS011;33676;51.006;17.180;2023-08-31T11:00:03;3.50;;;2.70;;
47912;SDS011;33676;51.006;17.180;2023-08-31T11:05:16;3.10;;;3.00;;
47912;SDS011;33676;51.006;17.180;2023-08-31T11:07:46;2.60;;;2.40;;
47912;SDS011;33676;51.006;17.180;2023-08-31T11:10:19;3.10;;;2.70;;
47912;SDS011;33676;51.006;17.180;2023-08-31T11:12:51;2.40;;;2.30;;
47912;SDS011;33676;51.006;17.180;2023-08-31T11:15:22;2.30;;;2.20;;
47912;SDS011;33676;51.006;17.180;2023-08-31T11:17:54;3.30;;;2.90;;
47912;SDS011;33676;51.006;17.180;2023-08-31T11:20:23;3.60;;;3.30;;
47912;SDS011;33676;51.006;17.180;2023-08-31T11:22:54;2.60;;;2.50;;
47912;SDS011;33676;51.006;17.180;2023-08-31T11:25:22;2.70;;;2.60;;
47912;SDS011;33676;51.006;17.180;2023-08-31T11:30:22;2.80;;;2.60;;
47912;SDS011;33676;51.006;17.180;2023-08-31T11:32:50;2.80;;;2.70;;
47912;SDS011;33676;51.006;17.180;2023-08-31T11:35:20;3.70;;;2.90;;
47912;SDS011;33676;51.006;17.180;2023-08-31T11:37:55;2.40;;;2.30;;
47912;SDS011;33676;51.006;17.180;2023-08-31T11:40:26;3.90;;;3.10;;
47912;SDS011;33676;51.006;17.180;2023-08-31T11:42:54;2.50;;;2.30;;
47912;SDS011;33676;51.006;17.180;2023-08-31T11:45:22;2.00;;;2.00;;
47912;SDS011;33676;51.006;17.180;2023-08-31T11:47:50;2.40;;;2.20;;
47912;SDS011;33676;51.006;17.180;2023-08-31T11:50:19;3.60;;;2.30;;
47912;SDS011;33676;51.006;17.180;2023-08-31T11:52:47;2.40;;;2.30;;
47912;SDS011;33676;51.006;17.180;2023-08-31T11:55:15;3.60;;;2.40;;
47912;SDS011;33676;51.006;17.180;2023-08-31T11:57:51;2.30;;;2.10;;
47912;SDS011;33676;51.006;17.180;2023-08-31T12:00:21;3.30;;;2.20;;
47912;SDS011;33676;51.006;17.180;2023-08-31T12:02:59;3.00;;;2.80;;
47912;SDS011;33676;51.006;17.180;2023-08-31T12:05:28;2.90;;;2.30;;
47912;SDS011;33676;51.006;17.180;2023-08-31T12:07:56;4.10;;;3.30;;
47912;SDS011;33676;51.006;17.180;2023-08-31T12:10:24;2.40;;;2.20;;
47912;SDS011;33676;51.006;17.180;2023-08-31T12:12:52;2.90;;;2.60;;
47912;SDS011;33676;51.006;17.180;2023-08-31T12:15:22;2.80;;;2.60;;
47912;SDS011;33676;51.006;17.180;2023-08-31T12:17:49;5.50;;;2.70;;
47912;SDS011;33676;51.006;17.180;2023-08-31T12:20:25;2.70;;;2.50;;
47912;SDS011;33676;51.006;17.180;2023-08-31T12:22:56;2.90;;;1.80;;
47912;SDS011;33676;51.006;17.180;2023-08-31T12:25:23;2.60;;;2.40;;
47912;SDS011;33676;51.006;17.180;2023-08-31T12:27:50;2.70;;;2.50;;
47912;SDS011;33676;51.006;17.180;2023-08-31T12:30:17;2.80;;;2.50;;
47912;SDS011;33676;51.006;17.180;2023-08-31T12:32:44;2.80;;;2.70;;
47912;SDS011;33676;51.006;17.180;2023-08-31T12:35:11;2.70;;;2.50;;
47912;SDS011;33676;51.006;17.180;2023-08-31T12:37:41;3.00;;;2.80;;
47912;SDS011;33676;51.006;17.180;2023-08-31T12:40:09;2.60;;;2.40;;
47912;SDS011;33676;51.006;17.180;2023-08-31T12:42:36;3.60;;;2.20;;
47912;SDS011;33676;51.006;17.180;2023-08-31T12:45:04;3.30;;;3.10;;
47912;SDS011;33676;51.006;17.180;2023-08-31T12:47:32;2.60;;;2.40;;
47912;SDS011;33676;51.006;17.180;2023-08-31T12:49:59;4.80;;;2.50;;
47912;SDS011;33676;51.006;17.180;2023-08-31T12:52:26;2.70;;;2.50;;
47912;SDS011;33676;51.006;17.180;2023-08-31T12:54:53;2.90;;;2.50;;
47912;SDS011;33676;51.006;17.180;2023-08-31T12:57:20;2.80;;;2.70;;
47912;SDS011;33676;51.006;17.180;2023-08-31T12:59:47;2.30;;;2.20;;
47912;SDS011;33676;51.006;17.180;2023-08-31T13:02:15;5.80;;;2.70;;
47912;SDS011;33676;51.006;17.180;2023-08-31T13:04:42;3.10;;;2.90;;
47912;SDS011;33676;51.006;17.180;2023-08-31T13:07:09;2.20;;;2.00;;
47912;SDS011;33676;51.006;17.180;2023-08-31T13:09:37;1.70;;;1.60;;
47912;SDS011;33676;51.006;17.180;2023-08-31T13:12:04;2.30;;;2.00;;
47912;SDS011;33676;51.006;17.180;2023-08-31T13:14:31;2.10;;;1.90;;
47912;SDS011;33676;51.006;17.180;2023-08-31T13:16:58;2.00;;;1.90;;
47912;SDS011;33676;51.006;17.180;2023-08-31T13:19:26;2.00;;;1.90;;
47912;SDS011;33676;51.006;17.180;2023-08-31T13:21:56;2.20;;;2.10;;
47912;SDS011;33676;51.006;17.180;2023-08-31T13:24:23;1.40;;;1.40;;
47912;SDS011;33676;51.006;17.180;2023-08-31T13:26:50;1.40;;;1.40;;
47912;SDS011;33676;51.006;17.180;2023-08-31T13:29:17;5.70;;;1.90;;
47912;SDS011;33676;51.006;17.180;2023-08-31T13:31:45;3.20;;;1.60;;
47912;SDS011;33676;51.006;17.180;2023-08-31T13:34:12;2.10;;;2.00;;
47912;SDS011;33676;51.006;17.180;2023-08-31T13:36:40;1.70;;;1.60;;
47912;SDS011;33676;51.006;17.180;2023-08-31T13:39:08;2.40;;;2.30;;
47912;SDS011;33676;51.006;17.180;2023-08-31T13:41:35;1.90;;;1.60;;
47912;SDS011;33676;51.006;17.180;2023-08-31T13:44:02;2.30;;;1.90;;
47912;SDS011;33676;51.006;17.180;2023-08-31T13:46:29;3.90;;;1.80;;
47912;SDS011;33676;51.006;17.180;2023-08-31T13:48:58;2.40;;;2.10;;
47912;SDS011;33676;51.006;17.180;2023-08-31T13:51:25;5.10;;;4.80;;
47912;SDS011;33676;51.006;17.180;2023-08-31T13:53:52;2.10;;;2.00;;
47912;SDS011;33676;51.006;17.180;2023-08-31T13:56:19;2.70;;;2.40;;
47912;SDS011;33676;51.006;17.180;2023-08-31T13:58:48;2.50;;;1.90;;
47912;SDS011;33676;51.006;17.180;2023-08-31T14:01:15;2.10;;;1.90;;
47912;SDS011;33676;51.006;17.180;2023-08-31T14:03:42;1.80;;;1.70;;
47912;SDS011;33676;51.006;17.180;2023-08-31T14:06:10;1.70;;;1.60;;
47912;SDS011;33676;51.006;17.180;2023-08-31T14:08:40;2.30;;;1.90;;
47912;SDS011;33676;51.006;17.180;2023-08-31T14:11:07;1.70;;;1.60;;
47912;SDS011;33676;51.006;17.180;2023-08-31T14:13:34;2.00;;;1.90;;
47912;SDS011;33676;51.006;17.180;2023-08-31T14:16:01;5.10;;;3.30;;
47912;SDS011;33676;51.006;17.180;2023-08-31T14:18:29;1.80;;;1.70;;
47912;SDS011;33676;51.006;17.180;2023-08-31T14:20:58;1.80;;;1.70;;
47912;SDS011;33676;51.006;17.180;2023-08-31T14:23:27;2.10;;;1.90;;
47912;SDS011;33676;51.006;17.180;2023-08-31T14:25:54;3.00;;;1.90;;
47912;SDS011;33676;51.006;17.180;2023-08-31T14:28:27;1.50;;;1.50;;
47912;SDS011;33676;51.006;17.180;2023-08-31T14:30:54;1.80;;;1.70;;
47912;SDS011;33676;51.006;17.180;2023-08-31T14:33:21;2.00;;;1.80;;
47912;SDS011;33676;51.006;17.180;2023-08-31T14:35:51;2.40;;;2.10;;
47912;SDS011;33676;51.006;17.180;2023-08-31T14:38:23;1.60;;;1.50;;
47912;SDS011;33676;51.006;17.180;2023-08-31T14:40:54;1.90;;;1.80;;
47912;SDS011;33676;51.006;17.180;2023-08-31T14:43:21;2.00;;;1.80;;
47912;SDS011;33676;51.006;17.180;2023-08-31T14:45:48;2.20;;;2.10;;
47912;SDS011;33676;51.006;17.180;2023-08-31T14:48:16;2.30;;;1.70;;
47912;SDS011;33676;51.006;17.180;2023-08-31T14:50:44;1.80;;;1.70;;
47912;SDS011;33676;51.006;17.180;2023-08-31T14:53:11;1.80;;;1.70;;
47912;SDS011;33676;51.006;17.180;2023-08-31T14:55:38;2.00;;;1.90;;
47912;SDS011;33676;51.006;17.180;2023-08-31T14:58:05;1.70;;;1.70;;
47912;SDS011;33676;51.006;17.180;2023-08-31T15:00:33;1.90;;;1.90;;